Huslia Airport Huslia US
ICAO: PAHL
IATA:
Category: Medium
Scheduled Services:

Elevation: 220 ft
TransAlt. 18000 ft.

Airport Communications:
AWOS 3:135.75
ANCHORAGE CNTR:127
CTAF:122.8
FAIRBANKS RDO:122.4

PAHL Zoom In..

Runways:

(A) RW 03 length 4000 ft width 75 ft
---- / hdg 32

(B) RW 21 length 4000 ft width 75 ft
---- / hdg 212

Location; PAHL
Day. 21 / Time. 23.56 Zulu
* Altimeter: 29.92
* Temperature: -04° c. -24.8°f.
* Wind from: 070° Speed 14 kn with Gusts up to 17 kn.
Dewpoint: -12° c.
Visibility: 10 Statute Miles.
Clouds: Overcast 4400 ft.

PAHL 212356Z AUTO 07014G17KT 10SM OVC044 M04/M12 A2992 RMK AO2 SLP143 T10391122 11039 21100 53003 FZRANO


Wind From 070°
Speed 14 kn.

  YouTube Music Video
 
jpsmedia.com for Web Design  worldairports.se 2018   terms of use